sensor_id;sensor_type;location;lat;lon;timestamp;P1;durP1;ratioP1;P2;durP2;ratioP2
2772;SDS011;1394;47.044;15.744;2023-02-28T00:00:39;26.30;;;2.43;;
2772;SDS011;1394;47.044;15.744;2023-02-28T00:03:06;25.80;;;2.40;;
2772;SDS011;1394;47.044;15.744;2023-02-28T00:05:33;25.73;;;2.20;;
2772;SDS011;1394;47.044;15.744;2023-02-28T00:08:00;25.63;;;2.63;;
2772;SDS011;1394;47.044;15.744;2023-02-28T00:10:32;26.00;;;2.83;;
2772;SDS011;1394;47.044;15.744;2023-02-28T00:13:00;25.30;;;2.50;;
2772;SDS011;1394;47.044;15.744;2023-02-28T00:15:27;25.50;;;2.27;;
2772;SDS011;1394;47.044;15.744;2023-02-28T00:17:54;25.67;;;2.40;;
2772;SDS011;1394;47.044;15.744;2023-02-28T00:20:22;25.80;;;2.30;;
2772;SDS011;1394;47.044;15.744;2023-02-28T00:22:51;26.00;;;2.50;;
2772;SDS011;1394;47.044;15.744;2023-02-28T00:25:19;26.17;;;2.70;;
2772;SDS011;1394;47.044;15.744;2023-02-28T00:27:51;27.30;;;3.20;;
2772;SDS011;1394;47.044;15.744;2023-02-28T00:30:20;26.17;;;2.53;;
2772;SDS011;1394;47.044;15.744;2023-02-28T00:32:48;26.37;;;2.27;;
2772;SDS011;1394;47.044;15.744;2023-02-28T00:35:15;25.20;;;2.00;;
2772;SDS011;1394;47.044;15.744;2023-02-28T00:37:43;25.63;;;2.27;;
2772;SDS011;1394;47.044;15.744;2023-02-28T00:40:11;26.43;;;2.23;;
2772;SDS011;1394;47.044;15.744;2023-02-28T00:42:38;25.00;;;1.80;;
2772;SDS011;1394;47.044;15.744;2023-02-28T00:45:11;24.87;;;1.83;;
2772;SDS011;1394;47.044;15.744;2023-02-28T00:47:39;25.30;;;2.00;;
2772;SDS011;1394;47.044;15.744;2023-02-28T00:50:08;25.23;;;1.70;;
2772;SDS011;1394;47.044;15.744;2023-02-28T00:52:37;24.97;;;1.97;;
2772;SDS011;1394;47.044;15.744;2023-02-28T00:55:07;24.63;;;1.80;;
2772;SDS011;1394;47.044;15.744;2023-02-28T00:57:36;24.90;;;1.63;;
2772;SDS011;1394;47.044;15.744;2023-02-28T01:00:06;24.67;;;1.63;;
2772;SDS011;1394;47.044;15.744;2023-02-28T01:02:37;25.20;;;1.97;;
2772;SDS011;1394;47.044;15.744;2023-02-28T01:05:04;25.20;;;1.73;;
2772;SDS011;1394;47.044;15.744;2023-02-28T01:07:32;24.77;;;1.70;;
2772;SDS011;1394;47.044;15.744;2023-02-28T01:10:00;25.17;;;1.80;;
2772;SDS011;1394;47.044;15.744;2023-02-28T01:12:27;24.67;;;1.63;;
2772;SDS011;1394;47.044;15.744;2023-02-28T01:14:54;24.77;;;1.70;;
2772;SDS011;1394;47.044;15.744;2023-02-28T01:17:22;24.80;;;1.80;;
2772;SDS011;1394;47.044;15.744;2023-02-28T01:19:50;24.90;;;1.83;;
2772;SDS011;1394;47.044;15.744;2023-02-28T01:22:21;24.90;;;1.60;;
2772;SDS011;1394;47.044;15.744;2023-02-28T01:24:48;24.40;;;1.50;;
2772;SDS011;1394;47.044;15.744;2023-02-28T01:27:15;25.20;;;1.97;;
2772;SDS011;1394;47.044;15.744;2023-02-28T01:29:42;24.97;;;1.90;;
2772;SDS011;1394;47.044;15.744;2023-02-28T01:32:09;24.50;;;1.67;;
2772;SDS011;1394;47.044;15.744;2023-02-28T01:34:36;25.10;;;1.80;;
2772;SDS011;1394;47.044;15.744;2023-02-28T01:37:05;24.77;;;1.63;;
2772;SDS011;1394;47.044;15.744;2023-02-28T01:39:32;24.37;;;1.53;;
2772;SDS011;1394;47.044;15.744;2023-02-28T01:41:59;24.97;;;1.70;;
2772;SDS011;1394;47.044;15.744;2023-02-28T01:47:12;24.60;;;1.67;;
2772;SDS011;1394;47.044;15.744;2023-02-28T01:49:40;25.00;;;1.90;;
2772;SDS011;1394;47.044;15.744;2023-02-28T01:52:08;24.50;;;1.70;;
2772;SDS011;1394;47.044;15.744;2023-02-28T01:54:43;25.53;;;1.80;;
2772;SDS011;1394;47.044;15.744;2023-02-28T01:57:13;25.23;;;1.77;;
2772;SDS011;1394;47.044;15.744;2023-02-28T01:59:43;24.37;;;1.60;;
2772;SDS011;1394;47.044;15.744;2023-02-28T02:02:16;24.40;;;1.60;;
2772;SDS011;1394;47.044;15.744;2023-02-28T02:04:45;24.60;;;1.83;;
2772;SDS011;1394;47.044;15.744;2023-02-28T02:07:18;24.90;;;1.90;;
2772;SDS011;1394;47.044;15.744;2023-02-28T02:09:45;25.60;;;2.50;;
2772;SDS011;1394;47.044;15.744;2023-02-28T02:12:16;25.63;;;2.37;;
2772;SDS011;1394;47.044;15.744;2023-02-28T02:14:50;24.87;;;1.90;;
2772;SDS011;1394;47.044;15.744;2023-02-28T02:17:24;24.90;;;2.07;;
2772;SDS011;1394;47.044;15.744;2023-02-28T02:19:59;25.27;;;2.40;;
2772;SDS011;1394;47.044;15.744;2023-02-28T02:22:38;27.10;;;3.60;;
2772;SDS011;1394;47.044;15.744;2023-02-28T02:25:18;26.40;;;3.17;;
2772;SDS011;1394;47.044;15.744;2023-02-28T02:33:48;26.03;;;2.60;;
2772;SDS011;1394;47.044;15.744;2023-02-28T02:36:21;24.87;;;2.10;;
2772;SDS011;1394;47.044;15.744;2023-02-28T02:38:50;25.13;;;2.13;;
2772;SDS011;1394;47.044;15.744;2023-02-28T02:41:19;24.70;;;1.97;;
2772;SDS011;1394;47.044;15.744;2023-02-28T02:43:51;24.77;;;1.87;;
2772;SDS011;1394;47.044;15.744;2023-02-28T02:46:31;24.93;;;2.10;;
2772;SDS011;1394;47.044;15.744;2023-02-28T02:48:59;24.73;;;1.80;;
2772;SDS011;1394;47.044;15.744;2023-02-28T02:51:29;24.47;;;1.60;;
2772;SDS011;1394;47.044;15.744;2023-02-28T02:53:58;25.80;;;2.13;;
2772;SDS011;1394;47.044;15.744;2023-02-28T02:56:27;24.87;;;1.70;;
2772;SDS011;1394;47.044;15.744;2023-02-28T02:58:57;24.37;;;1.50;;
2772;SDS011;1394;47.044;15.744;2023-02-28T03:01:26;24.47;;;1.80;;
2772;SDS011;1394;47.044;15.744;2023-02-28T03:03:55;24.93;;;1.87;;
2772;SDS011;1394;47.044;15.744;2023-02-28T03:06:24;24.80;;;1.67;;
2772;SDS011;1394;47.044;15.744;2023-02-28T03:08:52;24.77;;;1.63;;
2772;SDS011;1394;47.044;15.744;2023-02-28T03:11:20;24.50;;;1.50;;
2772;SDS011;1394;47.044;15.744;2023-02-28T03:13:56;24.53;;;1.67;;
2772;SDS011;1394;47.044;15.744;2023-02-28T03:16:32;25.27;;;2.10;;
2772;SDS011;1394;47.044;15.744;2023-02-28T03:19:06;26.20;;;1.80;;
2772;SDS011;1394;47.044;15.744;2023-02-28T03:21:38;24.93;;;1.90;;
2772;SDS011;1394;47.044;15.744;2023-02-28T03:24:13;24.70;;;1.57;;
2772;SDS011;1394;47.044;15.744;2023-02-28T03:26:45;25.00;;;1.93;;
2772;SDS011;1394;47.044;15.744;2023-02-28T03:29:18;25.00;;;2.10;;
2772;SDS011;1394;47.044;15.744;2023-02-28T03:31:48;25.67;;;2.20;;
2772;SDS011;1394;47.044;15.744;2023-02-28T03:34:17;24.83;;;2.00;;
2772;SDS011;1394;47.044;15.744;2023-02-28T03:36:47;24.80;;;1.77;;
2772;SDS011;1394;47.044;15.744;2023-02-28T03:39:19;25.20;;;1.57;;
2772;SDS011;1394;47.044;15.744;2023-02-28T03:41:48;24.90;;;1.90;;
2772;SDS011;1394;47.044;15.744;2023-02-28T03:44:17;24.57;;;1.60;;
2772;SDS011;1394;47.044;15.744;2023-02-28T03:46:46;24.90;;;1.90;;
2772;SDS011;1394;47.044;15.744;2023-02-28T03:49:16;24.67;;;1.70;;
2772;SDS011;1394;47.044;15.744;2023-02-28T03:51:44;25.10;;;2.10;;
2772;SDS011;1394;47.044;15.744;2023-02-28T03:54:12;25.10;;;1.90;;
2772;SDS011;1394;47.044;15.744;2023-02-28T03:56:42;24.70;;;1.70;;
2772;SDS011;1394;47.044;15.744;2023-02-28T03:59:10;25.40;;;2.20;;
2772;SDS011;1394;47.044;15.744;2023-02-28T04:01:41;25.63;;;2.20;;
2772;SDS011;1394;47.044;15.744;2023-02-28T04:04:09;25.10;;;1.90;;
2772;SDS011;1394;47.044;15.744;2023-02-28T04:06:37;25.13;;;2.10;;
2772;SDS011;1394;47.044;15.744;2023-02-28T04:09:04;24.73;;;1.67;;
2772;SDS011;1394;47.044;15.744;2023-02-28T04:11:33;24.70;;;1.67;;
2772;SDS011;1394;47.044;15.744;2023-02-28T04:14:03;24.87;;;2.20;;
2772;SDS011;1394;47.044;15.744;2023-02-28T04:16:30;25.27;;;1.80;;
2772;SDS011;1394;47.044;15.744;2023-02-28T04:18:58;25.20;;;2.20;;
2772;SDS011;1394;47.044;15.744;2023-02-28T04:21:28;25.17;;;2.20;;
2772;SDS011;1394;47.044;15.744;2023-02-28T04:23:55;25.10;;;1.97;;
2772;SDS011;1394;47.044;15.744;2023-02-28T04:26:27;24.93;;;2.20;;
2772;SDS011;1394;47.044;15.744;2023-02-28T04:28:54;25.00;;;2.17;;
2772;SDS011;1394;47.044;15.744;2023-02-28T04:31:23;24.80;;;1.80;;
2772;SDS011;1394;47.044;15.744;2023-02-28T04:33:51;25.03;;;1.80;;
2772;SDS011;1394;47.044;15.744;2023-02-28T04:36:20;24.47;;;1.87;;
2772;SDS011;1394;47.044;15.744;2023-02-28T04:38:48;24.67;;;1.90;;
2772;SDS011;1394;47.044;15.744;2023-02-28T04:41:15;24.80;;;1.90;;
2772;SDS011;1394;47.044;15.744;2023-02-28T04:43:44;24.67;;;1.80;;
2772;SDS011;1394;47.044;15.744;2023-02-28T04:46:12;24.50;;;1.70;;
2772;SDS011;1394;47.044;15.744;2023-02-28T04:48:41;24.73;;;1.77;;
2772;SDS011;1394;47.044;15.744;2023-02-28T04:51:10;26.20;;;2.07;;
2772;SDS011;1394;47.044;15.744;2023-02-28T04:53:39;24.33;;;1.60;;
2772;SDS011;1394;47.044;15.744;2023-02-28T04:56:10;24.90;;;1.83;;
2772;SDS011;1394;47.044;15.744;2023-02-28T04:58:39;26.13;;;2.03;;
2772;SDS011;1394;47.044;15.744;2023-02-28T05:01:07;25.30;;;2.63;;
2772;SDS011;1394;47.044;15.744;2023-02-28T05:03:43;24.97;;;2.03;;
2772;SDS011;1394;47.044;15.744;2023-02-28T05:06:11;24.60;;;2.10;;
2772;SDS011;1394;47.044;15.744;2023-02-28T05:08:39;24.97;;;2.10;;
2772;SDS011;1394;47.044;15.744;2023-02-28T05:11:12;25.27;;;2.20;;
2772;SDS011;1394;47.044;15.744;2023-02-28T05:13:40;24.60;;;1.97;;
2772;SDS011;1394;47.044;15.744;2023-02-28T05:16:09;28.30;;;4.73;;
2772;SDS011;1394;47.044;15.744;2023-02-28T05:18:38;36.70;;;11.10;;
2772;SDS011;1394;47.044;15.744;2023-02-28T05:21:12;28.10;;;4.73;;
2772;SDS011;1394;47.044;15.744;2023-02-28T05:23:44;27.77;;;5.00;;
2772;SDS011;1394;47.044;15.744;2023-02-28T05:26:12;25.53;;;2.90;;
2772;SDS011;1394;47.044;15.744;2023-02-28T05:28:40;25.30;;;2.57;;
2772;SDS011;1394;47.044;15.744;2023-02-28T05:31:08;25.97;;;2.80;;
2772;SDS011;1394;47.044;15.744;2023-02-28T05:33:39;25.90;;;2.57;;
2772;SDS011;1394;47.044;15.744;2023-02-28T05:36:08;25.10;;;2.40;;
2772;SDS011;1394;47.044;15.744;2023-02-28T05:38:35;25.53;;;2.27;;
2772;SDS011;1394;47.044;15.744;2023-02-28T05:41:04;25.03;;;2.20;;
2772;SDS011;1394;47.044;15.744;2023-02-28T05:43:33;25.10;;;2.27;;
2772;SDS011;1394;47.044;15.744;2023-02-28T05:46:03;24.80;;;2.30;;
2772;SDS011;1394;47.044;15.744;2023-02-28T05:48:31;26.27;;;2.50;;
2772;SDS011;1394;47.044;15.744;2023-02-28T05:51:00;25.07;;;2.43;;
2772;SDS011;1394;47.044;15.744;2023-02-28T05:53:31;25.47;;;2.53;;
2772;SDS011;1394;47.044;15.744;2023-02-28T05:55:58;25.37;;;2.50;;
2772;SDS011;1394;47.044;15.744;2023-02-28T05:58:26;25.43;;;2.60;;
2772;SDS011;1394;47.044;15.744;2023-02-28T06:00:56;25.50;;;2.37;;
2772;SDS011;1394;47.044;15.744;2023-02-28T06:03:23;25.27;;;2.43;;
2772;SDS011;1394;47.044;15.744;2023-02-28T06:05:50;25.23;;;2.63;;
2772;SDS011;1394;47.044;15.744;2023-02-28T06:08:18;25.97;;;2.50;;
2772;SDS011;1394;47.044;15.744;2023-02-28T06:10:46;28.03;;;2.30;;
2772;SDS011;1394;47.044;15.744;2023-02-28T06:13:14;25.60;;;2.50;;
2772;SDS011;1394;47.044;15.744;2023-02-28T06:15:41;25.50;;;3.00;;
2772;SDS011;1394;47.044;15.744;2023-02-28T06:18:11;25.50;;;2.63;;
2772;SDS011;1394;47.044;15.744;2023-02-28T06:20:39;25.60;;;2.73;;
2772;SDS011;1394;47.044;15.744;2023-02-28T06:23:13;25.83;;;2.87;;
2772;SDS011;1394;47.044;15.744;2023-02-28T06:25:44;28.50;;;2.63;;
2772;SDS011;1394;47.044;15.744;2023-02-28T06:28:15;25.70;;;2.83;;
2772;SDS011;1394;47.044;15.744;2023-02-28T06:30:43;25.00;;;2.57;;
2772;SDS011;1394;47.044;15.744;2023-02-28T06:33:11;25.50;;;2.50;;
2772;SDS011;1394;47.044;15.744;2023-02-28T06:35:43;25.70;;;3.10;;
2772;SDS011;1394;47.044;15.744;2023-02-28T06:38:10;26.17;;;2.80;;
2772;SDS011;1394;47.044;15.744;2023-02-28T06:40:38;25.83;;;2.93;;
2772;SDS011;1394;47.044;15.744;2023-02-28T06:43:05;25.60;;;2.73;;
2772;SDS011;1394;47.044;15.744;2023-02-28T06:45:33;25.53;;;2.83;;
2772;SDS011;1394;47.044;15.744;2023-02-28T06:48:01;25.43;;;2.80;;
2772;SDS011;1394;47.044;15.744;2023-02-28T06:50:29;26.40;;;3.07;;
2772;SDS011;1394;47.044;15.744;2023-02-28T06:52:57;25.80;;;2.80;;
2772;SDS011;1394;47.044;15.744;2023-02-28T06:55:24;28.30;;;4.10;;
2772;SDS011;1394;47.044;15.744;2023-02-28T06:57:51;29.30;;;4.23;;
2772;SDS011;1394;47.044;15.744;2023-02-28T07:00:20;27.20;;;3.63;;
2772;SDS011;1394;47.044;15.744;2023-02-28T07:02:50;27.60;;;4.03;;
2772;SDS011;1394;47.044;15.744;2023-02-28T07:05:18;26.63;;;3.30;;
2772;SDS011;1394;47.044;15.744;2023-02-28T07:07:46;25.50;;;2.67;;
2772;SDS011;1394;47.044;15.744;2023-02-28T07:10:14;26.27;;;2.90;;
2772;SDS011;1394;47.044;15.744;2023-02-28T07:12:42;25.90;;;2.80;;
2772;SDS011;1394;47.044;15.744;2023-02-28T07:15:12;25.87;;;3.07;;
2772;SDS011;1394;47.044;15.744;2023-02-28T07:17:40;26.20;;;3.37;;
2772;SDS011;1394;47.044;15.744;2023-02-28T07:20:09;25.70;;;3.20;;
2772;SDS011;1394;47.044;15.744;2023-02-28T07:22:37;25.47;;;2.40;;
2772;SDS011;1394;47.044;15.744;2023-02-28T07:25:04;25.83;;;3.03;;
2772;SDS011;1394;47.044;15.744;2023-02-28T07:27:32;25.30;;;2.80;;
2772;SDS011;1394;47.044;15.744;2023-02-28T07:30:00;25.83;;;2.70;;
2772;SDS011;1394;47.044;15.744;2023-02-28T07:32:28;25.67;;;2.87;;
2772;SDS011;1394;47.044;15.744;2023-02-28T07:34:56;27.53;;;2.93;;
2772;SDS011;1394;47.044;15.744;2023-02-28T07:37:26;25.80;;;2.70;;
2772;SDS011;1394;47.044;15.744;2023-02-28T07:39:57;26.70;;;3.47;;
2772;SDS011;1394;47.044;15.744;2023-02-28T07:42:24;25.57;;;2.90;;
2772;SDS011;1394;47.044;15.744;2023-02-28T07:44:51;25.87;;;2.93;;
2772;SDS011;1394;47.044;15.744;2023-02-28T07:47:19;25.17;;;2.60;;
2772;SDS011;1394;47.044;15.744;2023-02-28T07:49:46;25.30;;;2.60;;
2772;SDS011;1394;47.044;15.744;2023-02-28T07:52:13;26.20;;;3.17;;
2772;SDS011;1394;47.044;15.744;2023-02-28T07:54:42;26.17;;;2.90;;
2772;SDS011;1394;47.044;15.744;2023-02-28T07:57:10;26.10;;;2.87;;
2772;SDS011;1394;47.044;15.744;2023-02-28T07:59:38;25.80;;;2.87;;
2772;SDS011;1394;47.044;15.744;2023-02-28T08:02:05;25.20;;;2.67;;
2772;SDS011;1394;47.044;15.744;2023-02-28T08:04:32;25.10;;;2.60;;
2772;SDS011;1394;47.044;15.744;2023-02-28T08:07:00;25.87;;;2.80;;
2772;SDS011;1394;47.044;15.744;2023-02-28T08:09:28;26.33;;;3.20;;
2772;SDS011;1394;47.044;15.744;2023-02-28T08:11:58;32.20;;;7.80;;
2772;SDS011;1394;47.044;15.744;2023-02-28T08:14:25;25.40;;;3.00;;
2772;SDS011;1394;47.044;15.744;2023-02-28T08:16:52;36.77;;;10.37;;
2772;SDS011;1394;47.044;15.744;2023-02-28T08:19:19;25.90;;;3.20;;
2772;SDS011;1394;47.044;15.744;2023-02-28T08:21:46;27.50;;;4.07;;
2772;SDS011;1394;47.044;15.744;2023-02-28T08:24:14;26.10;;;3.57;;
2772;SDS011;1394;47.044;15.744;2023-02-28T08:26:42;25.77;;;3.27;;
2772;SDS011;1394;47.044;15.744;2023-02-28T08:29:13;26.43;;;3.57;;
2772;SDS011;1394;47.044;15.744;2023-02-28T08:31:41;30.27;;;6.93;;
2772;SDS011;1394;47.044;15.744;2023-02-28T08:34:09;27.50;;;4.30;;
2772;SDS011;1394;47.044;15.744;2023-02-28T08:36:36;26.33;;;3.50;;
2772;SDS011;1394;47.044;15.744;2023-02-28T08:39:04;31.70;;;8.43;;
2772;SDS011;1394;47.044;15.744;2023-02-28T08:41:32;27.50;;;4.53;;
2772;SDS011;1394;47.044;15.744;2023-02-28T08:43:59;26.43;;;3.77;;
2772;SDS011;1394;47.044;15.744;2023-02-28T08:46:28;28.10;;;6.30;;
2772;SDS011;1394;47.044;15.744;2023-02-28T08:48:56;25.77;;;3.00;;
2772;SDS011;1394;47.044;15.744;2023-02-28T08:51:25;27.90;;;4.20;;
2772;SDS011;1394;47.044;15.744;2023-02-28T08:53:56;26.20;;;3.37;;
2772;SDS011;1394;47.044;15.744;2023-02-28T08:56:25;26.97;;;4.00;;
2772;SDS011;1394;47.044;15.744;2023-02-28T08:58:54;26.80;;;3.87;;
2772;SDS011;1394;47.044;15.744;2023-02-28T09:01:23;26.20;;;3.60;;
2772;SDS011;1394;47.044;15.744;2023-02-28T09:03:53;26.40;;;3.73;;
2772;SDS011;1394;47.044;15.744;2023-02-28T09:06:23;25.50;;;2.97;;
2772;SDS011;1394;47.044;15.744;2023-02-28T09:08:56;25.87;;;3.53;;
2772;SDS011;1394;47.044;15.744;2023-02-28T09:11:25;25.97;;;3.50;;
2772;SDS011;1394;47.044;15.744;2023-02-28T09:13:52;26.13;;;3.80;;
2772;SDS011;1394;47.044;15.744;2023-02-28T09:16:24;26.00;;;3.60;;
2772;SDS011;1394;47.044;15.744;2023-02-28T09:18:51;26.20;;;3.57;;
2772;SDS011;1394;47.044;15.744;2023-02-28T09:21:19;27.70;;;4.53;;
2772;SDS011;1394;47.044;15.744;2023-02-28T09:23:47;26.83;;;3.33;;
2772;SDS011;1394;47.044;15.744;2023-02-28T09:26:16;26.00;;;3.23;;
2772;SDS011;1394;47.044;15.744;2023-02-28T09:28:45;26.37;;;3.67;;
2772;SDS011;1394;47.044;15.744;2023-02-28T09:31:14;26.63;;;3.50;;
2772;SDS011;1394;47.044;15.744;2023-02-28T09:33:45;28.00;;;4.20;;
2772;SDS011;1394;47.044;15.744;2023-02-28T09:36:12;25.80;;;3.50;;
2772;SDS011;1394;47.044;15.744;2023-02-28T09:38:40;26.90;;;3.70;;
2772;SDS011;1394;47.044;15.744;2023-02-28T09:41:10;26.33;;;3.90;;
2772;SDS011;1394;47.044;15.744;2023-02-28T09:43:40;27.23;;;3.80;;
2772;SDS011;1394;47.044;15.744;2023-02-28T09:46:11;25.60;;;3.10;;
2772;SDS011;1394;47.044;15.744;2023-02-28T09:48:43;25.97;;;3.33;;
2772;SDS011;1394;47.044;15.744;2023-02-28T09:51:15;26.20;;;3.63;;
2772;SDS011;1394;47.044;15.744;2023-02-28T09:53:46;27.23;;;3.50;;
2772;SDS011;1394;47.044;15.744;2023-02-28T09:56:15;27.20;;;3.80;;
2772;SDS011;1394;47.044;15.744;2023-02-28T09:58:53;26.97;;;3.67;;
2772;SDS011;1394;47.044;15.744;2023-02-28T10:01:23;26.37;;;3.80;;
2772;SDS011;1394;47.044;15.744;2023-02-28T10:03:55;26.10;;;3.73;;
2772;SDS011;1394;47.044;15.744;2023-02-28T10:06:26;27.97;;;3.83;;
2772;SDS011;1394;47.044;15.744;2023-02-28T10:09:00;28.10;;;3.87;;
2772;SDS011;1394;47.044;15.744;2023-02-28T10:11:28;26.47;;;3.77;;
2772;SDS011;1394;47.044;15.744;2023-02-28T10:13:59;26.43;;;3.63;;
2772;SDS011;1394;47.044;15.744;2023-02-28T10:16:31;26.47;;;4.17;;
2772;SDS011;1394;47.044;15.744;2023-02-28T10:19:05;27.10;;;3.37;;
2772;SDS011;1394;47.044;15.744;2023-02-28T10:21:34;26.37;;;3.93;;
2772;SDS011;1394;47.044;15.744;2023-02-28T10:26:51;28.83;;;5.07;;
2772;SDS011;1394;47.044;15.744;2023-02-28T10:29:19;30.17;;;5.60;;
2772;SDS011;1394;47.044;15.744;2023-02-28T10:31:46;27.77;;;5.00;;
2772;SDS011;1394;47.044;15.744;2023-02-28T10:34:13;30.37;;;5.03;;
2772;SDS011;1394;47.044;15.744;2023-02-28T10:36:42;28.57;;;5.20;;
2772;SDS011;1394;47.044;15.744;2023-02-28T10:41:57;29.40;;;6.00;;
2772;SDS011;1394;47.044;15.744;2023-02-28T10:44:24;27.60;;;5.23;;
2772;SDS011;1394;47.044;15.744;2023-02-28T10:46:52;27.87;;;4.53;;
2772;SDS011;1394;47.044;15.744;2023-02-28T10:49:20;28.60;;;4.63;;
2772;SDS011;1394;47.044;15.744;2023-02-28T10:51:48;26.50;;;4.00;;
2772;SDS011;1394;47.044;15.744;2023-02-28T10:54:19;27.30;;;4.90;;
2772;SDS011;1394;47.044;15.744;2023-02-28T10:59:31;29.50;;;5.30;;
2772;SDS011;1394;47.044;15.744;2023-02-28T11:01:58;28.40;;;5.80;;
2772;SDS011;1394;47.044;15.744;2023-02-28T11:04:32;30.47;;;6.70;;
2772;SDS011;1394;47.044;15.744;2023-02-28T11:07:02;28.30;;;5.50;;
2772;SDS011;1394;47.044;15.744;2023-02-28T11:09:30;28.33;;;5.53;;
2772;SDS011;1394;47.044;15.744;2023-02-28T11:12:00;27.90;;;4.57;;
2772;SDS011;1394;47.044;15.744;2023-02-28T11:14:28;28.37;;;5.80;;
2772;SDS011;1394;47.044;15.744;2023-02-28T11:16:59;28.67;;;5.47;;
2772;SDS011;1394;47.044;15.744;2023-02-28T11:19:33;28.63;;;5.47;;
2772;SDS011;1394;47.044;15.744;2023-02-28T11:22:06;27.67;;;5.10;;
2772;SDS011;1394;47.044;15.744;2023-02-28T11:24:36;28.60;;;5.30;;
2772;SDS011;1394;47.044;15.744;2023-02-28T11:27:11;27.40;;;4.67;;
2772;SDS011;1394;47.044;15.744;2023-02-28T11:29:42;27.97;;;5.40;;
2772;SDS011;1394;47.044;15.744;2023-02-28T11:32:16;29.93;;;5.90;;
2772;SDS011;1394;47.044;15.744;2023-02-28T11:34:45;29.03;;;6.17;;
2772;SDS011;1394;47.044;15.744;2023-02-28T11:37:15;28.40;;;5.77;;
2772;SDS011;1394;47.044;15.744;2023-02-28T11:39:43;28.27;;;5.40;;
2772;SDS011;1394;47.044;15.744;2023-02-28T11:42:14;28.43;;;6.03;;
2772;SDS011;1394;47.044;15.744;2023-02-28T11:44:54;29.87;;;5.60;;
2772;SDS011;1394;47.044;15.744;2023-02-28T11:47:31;29.27;;;6.07;;
2772;SDS011;1394;47.044;15.744;2023-02-28T11:50:04;27.90;;;5.67;;
2772;SDS011;1394;47.044;15.744;2023-02-28T11:52:39;28.37;;;6.07;;
2772;SDS011;1394;47.044;15.744;2023-02-28T11:55:14;29.00;;;6.13;;
2772;SDS011;1394;47.044;15.744;2023-02-28T11:57:49;29.80;;;6.50;;
2772;SDS011;1394;47.044;15.744;2023-02-28T12:00:26;29.20;;;6.03;;
2772;SDS011;1394;47.044;15.744;2023-02-28T12:03:00;28.97;;;6.27;;
2772;SDS011;1394;47.044;15.744;2023-02-28T12:05:31;29.70;;;6.97;;
2772;SDS011;1394;47.044;15.744;2023-02-28T12:08:03;29.30;;;6.53;;
2772;SDS011;1394;47.044;15.744;2023-02-28T12:10:35;28.57;;;6.30;;
2772;SDS011;1394;47.044;15.744;2023-02-28T12:13:08;28.63;;;5.90;;
2772;SDS011;1394;47.044;15.744;2023-02-28T12:15:43;28.63;;;5.87;;
2772;SDS011;1394;47.044;15.744;2023-02-28T12:18:21;28.97;;;5.90;;
2772;SDS011;1394;47.044;15.744;2023-02-28T12:20:55;28.73;;;5.80;;
2772;SDS011;1394;47.044;15.744;2023-02-28T12:23:30;28.87;;;6.67;;
2772;SDS011;1394;47.044;15.744;2023-02-28T12:26:06;28.60;;;5.90;;
2772;SDS011;1394;47.044;15.744;2023-02-28T12:28:36;29.10;;;6.50;;
2772;SDS011;1394;47.044;15.744;2023-02-28T12:31:06;28.23;;;5.70;;
2772;SDS011;1394;47.044;15.744;2023-02-28T12:33:40;27.87;;;5.30;;
2772;SDS011;1394;47.044;15.744;2023-02-28T12:36:09;28.90;;;7.00;;
2772;SDS011;1394;47.044;15.744;2023-02-28T12:38:41;29.87;;;6.50;;
2772;SDS011;1394;47.044;15.744;2023-02-28T12:41:11;28.73;;;6.20;;
2772;SDS011;1394;47.044;15.744;2023-02-28T12:43:40;30.03;;;7.10;;
2772;SDS011;1394;47.044;15.744;2023-02-28T12:46:09;29.63;;;6.00;;
2772;SDS011;1394;47.044;15.744;2023-02-28T12:48:39;29.40;;;6.10;;
2772;SDS011;1394;47.044;15.744;2023-02-28T12:51:11;29.90;;;6.50;;
2772;SDS011;1394;47.044;15.744;2023-02-28T12:53:42;29.83;;;6.43;;
2772;SDS011;1394;47.044;15.744;2023-02-28T12:56:13;28.57;;;5.80;;
2772;SDS011;1394;47.044;15.744;2023-02-28T12:58:42;28.83;;;5.70;;
2772;SDS011;1394;47.044;15.744;2023-02-28T13:04:05;28.73;;;5.90;;
2772;SDS011;1394;47.044;15.744;2023-02-28T13:06:44;28.90;;;6.80;;
2772;SDS011;1394;47.044;15.744;2023-02-28T13:09:16;29.27;;;6.30;;
2772;SDS011;1394;47.044;15.744;2023-02-28T13:11:45;29.70;;;6.40;;
2772;SDS011;1394;47.044;15.744;2023-02-28T13:14:22;28.70;;;6.03;;
2772;SDS011;1394;47.044;15.744;2023-02-28T13:16:54;29.00;;;5.53;;
2772;SDS011;1394;47.044;15.744;2023-02-28T13:19:22;28.57;;;6.13;;
2772;SDS011;1394;47.044;15.744;2023-02-28T13:21:51;29.50;;;5.73;;
2772;SDS011;1394;47.044;15.744;2023-02-28T13:24:39;29.43;;;5.90;;
2772;SDS011;1394;47.044;15.744;2023-02-28T13:27:17;28.00;;;5.53;;
2772;SDS011;1394;47.044;15.744;2023-02-28T13:29:50;27.97;;;5.33;;
2772;SDS011;1394;47.044;15.744;2023-02-28T13:35:12;27.60;;;5.00;;
2772;SDS011;1394;47.044;15.744;2023-02-28T13:37:43;27.47;;;4.90;;
2772;SDS011;1394;47.044;15.744;2023-02-28T13:40:31;28.17;;;5.63;;
2772;SDS011;1394;47.044;15.744;2023-02-28T13:43:02;27.70;;;5.10;;
2772;SDS011;1394;47.044;15.744;2023-02-28T13:45:30;27.30;;;4.67;;
2772;SDS011;1394;47.044;15.744;2023-02-28T13:48:04;28.40;;;5.20;;
2772;SDS011;1394;47.044;15.744;2023-02-28T13:50:32;28.03;;;4.57;;
2772;SDS011;1394;47.044;15.744;2023-02-28T13:58:48;26.87;;;4.03;;
2772;SDS011;1394;47.044;15.744;2023-02-28T14:01:25;26.50;;;3.70;;
2772;SDS011;1394;47.044;15.744;2023-02-28T14:03:58;26.53;;;3.80;;
2772;SDS011;1394;47.044;15.744;2023-02-28T14:06:29;26.80;;;3.60;;
2772;SDS011;1394;47.044;15.744;2023-02-28T14:08:58;26.97;;;4.13;;
2772;SDS011;1394;47.044;15.744;2023-02-28T14:11:34;26.63;;;3.50;;
2772;SDS011;1394;47.044;15.744;2023-02-28T14:14:04;26.07;;;3.27;;
2772;SDS011;1394;47.044;15.744;2023-02-28T14:16:45;26.50;;;3.37;;
2772;SDS011;1394;47.044;15.744;2023-02-28T14:19:13;25.97;;;2.07;;
2772;SDS011;1394;47.044;15.744;2023-02-28T14:21:47;25.70;;;2.60;;
2772;SDS011;1394;47.044;15.744;2023-02-28T14:27:14;25.57;;;2.10;;
2772;SDS011;1394;47.044;15.744;2023-02-28T14:32:50;26.10;;;2.70;;
2772;SDS011;1394;47.044;15.744;2023-02-28T14:35:22;25.80;;;2.60;;
2772;SDS011;1394;47.044;15.744;2023-02-28T14:37:56;25.77;;;2.43;;
2772;SDS011;1394;47.044;15.744;2023-02-28T14:40:29;26.03;;;2.47;;
2772;SDS011;1394;47.044;15.744;2023-02-28T14:42:58;25.80;;;2.70;;
2772;SDS011;1394;47.044;15.744;2023-02-28T14:45:29;26.20;;;3.13;;
2772;SDS011;1394;47.044;15.744;2023-02-28T14:47:59;26.70;;;3.40;;
2772;SDS011;1394;47.044;15.744;2023-02-28T14:50:32;26.70;;;2.67;;
2772;SDS011;1394;47.044;15.744;2023-02-28T14:53:01;26.10;;;2.70;;
2772;SDS011;1394;47.044;15.744;2023-02-28T14:55:32;26.93;;;3.23;;
2772;SDS011;1394;47.044;15.744;2023-02-28T14:58:01;25.90;;;2.90;;
2772;SDS011;1394;47.044;15.744;2023-02-28T15:00:30;26.60;;;3.60;;
2772;SDS011;1394;47.044;15.744;2023-02-28T15:03:00;26.27;;;3.30;;
2772;SDS011;1394;47.044;15.744;2023-02-28T15:05:41;25.93;;;3.27;;
2772;SDS011;1394;47.044;15.744;2023-02-28T15:08:11;26.10;;;3.00;;
2772;SDS011;1394;47.044;15.744;2023-02-28T15:10:41;26.20;;;3.27;;
2772;SDS011;1394;47.044;15.744;2023-02-28T15:13:11;26.23;;;3.30;;
2772;SDS011;1394;47.044;15.744;2023-02-28T15:15:43;26.73;;;3.80;;
2772;SDS011;1394;47.044;15.744;2023-02-28T15:18:20;26.40;;;3.70;;
2772;SDS011;1394;47.044;15.744;2023-02-28T15:20:48;26.33;;;3.30;;
2772;SDS011;1394;47.044;15.744;2023-02-28T15:23:17;26.60;;;3.50;;
2772;SDS011;1394;47.044;15.744;2023-02-28T15:25:46;26.10;;;3.20;;
2772;SDS011;1394;47.044;15.744;2023-02-28T15:28:15;26.47;;;3.67;;
2772;SDS011;1394;47.044;15.744;2023-02-28T15:30:52;26.40;;;3.80;;
2772;SDS011;1394;47.044;15.744;2023-02-28T15:33:24;26.50;;;3.47;;
2772;SDS011;1394;47.044;15.744;2023-02-28T15:36:02;26.50;;;3.80;;
2772;SDS011;1394;47.044;15.744;2023-02-28T15:38:33;25.60;;;3.17;;